createdAt,value
2023-05-08T00:00:57.219Z,2.87
2023-05-08T00:01:58.881Z,2.83
2023-05-08T00:03:00.528Z,2.80
2023-05-08T00:04:02.377Z,2.80
2023-05-08T00:05:04.548Z,2.75
2023-05-08T00:06:06.697Z,2.70
2023-05-08T00:07:08.303Z,3.28
2023-05-08T00:08:09.846Z,3.13
2023-05-08T00:09:11.419Z,3.08
2023-05-08T00:10:13.315Z,2.63
2023-05-08T00:11:15.244Z,2.90
2023-05-08T00:12:16.824Z,2.75
2023-05-08T00:13:18.385Z,3.30
2023-05-08T00:14:19.944Z,3.03
2023-05-08T00:15:21.866Z,2.92
2023-05-08T00:16:23.506Z,3.25
2023-05-08T00:17:25.489Z,2.72
2023-05-08T00:18:27.119Z,2.60
2023-05-08T00:19:28.661Z,3.17
2023-05-08T00:20:30.226Z,2.88
2023-05-08T00:21:31.773Z,2.90
2023-05-08T00:22:33.447Z,2.92
2023-05-08T00:23:35.007Z,2.80
2023-05-08T00:25:38.355Z,2.70
2023-05-08T00:26:39.882Z,3.00
2023-05-08T00:27:41.517Z,3.08
2023-05-08T00:28:43.138Z,2.90
2023-05-08T00:29:44.738Z,3.17
2023-05-08T00:30:46.256Z,2.80
2023-05-08T00:31:47.891Z,3.00
2023-05-08T00:32:49.500Z,3.85
2023-05-08T00:33:51.089Z,3.72
2023-05-08T00:34:52.680Z,4.95
2023-05-08T00:36:00.848Z,3.35
2023-05-08T00:37:02.387Z,3.72
2023-05-08T00:38:03.992Z,3.58
2023-05-08T00:39:05.647Z,3.50
2023-05-08T00:40:08.472Z,3.33
2023-05-08T00:42:11.828Z,3.53
2023-05-08T00:44:15.399Z,4.15
2023-05-08T00:45:16.947Z,4.43
2023-05-08T00:48:24.754Z,4.35
2023-05-08T00:49:26.535Z,4.22
2023-05-08T00:50:28.147Z,4.40
2023-05-08T00:54:42.839Z,4.50
2023-05-08T00:55:44.686Z,4.20
2023-05-08T00:56:47.144Z,4.03
2023-05-08T00:58:51.220Z,4.47
2023-05-08T00:59:53.161Z,4.10
2023-05-08T01:00:56.228Z,4.90
2023-05-08T01:01:57.854Z,4.75
2023-05-08T01:03:00.478Z,5.10
2023-05-08T01:04:02.745Z,4.53
2023-05-08T01:05:04.457Z,4.97
2023-05-08T01:06:06.185Z,4.30
2023-05-08T01:07:07.940Z,4.55
2023-05-08T01:08:09.457Z,4.28
2023-05-08T01:09:11.102Z,5.10
2023-05-08T01:12:29.812Z,5.07
2023-05-08T01:16:16.618Z,5.10
2023-05-08T01:19:06.743Z,5.03
2023-05-08T01:24:25.009Z,5.38
2023-05-08T01:27:04.746Z,4.90
2023-05-08T01:34:48.241Z,4.88
2023-05-08T01:38:34.564Z,4.70
2023-05-08T01:41:02.085Z,4.72
2023-05-08T01:42:08.831Z,4.85
2023-05-08T01:44:32.609Z,4.90
2023-05-08T01:45:38.877Z,4.82
2023-05-08T01:48:53.629Z,5.70
2023-05-08T01:50:04.271Z,5.13
2023-05-08T01:54:30.294Z,4.85
2023-05-08T01:55:34.530Z,5.80
2023-05-08T01:58:53.007Z,5.43
2023-05-08T02:01:00.080Z,5.90
2023-05-08T02:03:06.200Z,5.15
2023-05-08T02:05:12.676Z,5.53
2023-05-08T02:07:19.633Z,5.40
2023-05-08T02:08:22.009Z,5.18
2023-05-08T02:09:24.539Z,5.05
2023-05-08T02:10:28.231Z,5.43
2023-05-08T02:11:30.973Z,4.85
2023-05-08T02:12:32.813Z,5.20
2023-05-08T02:13:35.143Z,4.15
2023-05-08T02:14:37.524Z,5.80
2023-05-08T02:15:39.797Z,5.25
2023-05-08T02:16:42.219Z,5.13
2023-05-08T02:17:45.777Z,5.28
2023-05-08T02:18:49.835Z,5.13
2023-05-08T02:19:52.451Z,5.22
2023-05-08T02:20:54.534Z,5.53
2023-05-08T02:21:57.462Z,5.60
2023-05-08T02:22:59.265Z,5.60
2023-05-08T02:24:01.369Z,5.53
2023-05-08T02:25:03.558Z,5.70
2023-05-08T02:26:05.210Z,5.35
2023-05-08T02:27:07.829Z,5.50
2023-05-08T02:28:09.769Z,5.57
2023-05-08T02:29:11.335Z,6.25
2023-05-08T02:30:14.221Z,5.10
2023-05-08T02:31:16.379Z,5.75
2023-05-08T02:32:19.675Z,5.50
2023-05-08T02:34:24.014Z,5.00
2023-05-08T02:35:26.461Z,6.10
2023-05-08T02:36:28.164Z,5.32
2023-05-08T02:37:30.322Z,5.30
2023-05-08T02:38:31.960Z,5.75
2023-05-08T02:39:35.731Z,5.53
2023-05-08T02:40:41.434Z,4.97
2023-05-08T02:41:43.016Z,5.60
2023-05-08T02:42:44.939Z,5.38
2023-05-08T02:43:46.531Z,5.40
2023-05-08T02:44:48.086Z,5.30
2023-05-08T02:45:49.594Z,4.90
2023-05-08T02:46:53.969Z,5.10
2023-05-08T02:47:55.626Z,5.43
2023-05-08T02:48:57.159Z,5.63
2023-05-08T02:50:09.819Z,5.38
2023-05-08T02:51:23.946Z,5.32
2023-05-08T02:52:28.747Z,5.70
2023-05-08T02:53:35.856Z,5.40
2023-05-08T02:54:42.246Z,5.63
2023-05-08T02:55:59.319Z,4.75
2023-05-08T02:57:03.480Z,5.22
2023-05-08T02:58:05.026Z,6.28
2023-05-08T02:59:13.243Z,5.20
2023-05-08T03:00:18.108Z,5.20
2023-05-08T03:01:22.492Z,5.13
2023-05-08T03:02:39.556Z,5.60
2023-05-08T03:03:43.720Z,5.80
2023-05-08T03:04:54.768Z,5.13
2023-05-08T03:05:58.030Z,5.47
2023-05-08T03:07:00.350Z,4.88
2023-05-08T03:08:11.129Z,4.90
2023-05-08T03:09:16.628Z,4.90
2023-05-08T03:10:19.273Z,5.55
2023-05-08T03:11:26.153Z,5.03
2023-05-08T03:12:28.604Z,5.10
2023-05-08T03:13:32.377Z,4.97
2023-05-08T03:15:45.207Z,5.40
2023-05-08T03:16:47.959Z,4.70
2023-05-08T03:17:52.318Z,4.88
2023-05-08T03:18:56.910Z,5.15
2023-05-08T03:20:00.784Z,4.82
2023-05-08T03:21:02.609Z,5.00
2023-05-08T03:22:05.292Z,5.43
2023-05-08T03:23:08.404Z,5.13
2023-05-08T03:24:10.404Z,5.05
2023-05-08T03:25:12.667Z,4.97
2023-05-08T03:26:17.091Z,5.22
2023-05-08T03:27:19.103Z,5.17
2023-05-08T03:28:20.963Z,4.80
2023-05-08T03:29:23.751Z,5.20
2023-05-08T03:30:26.859Z,5.32
2023-05-08T03:31:28.597Z,4.68
2023-05-08T03:32:31.709Z,4.60
2023-05-08T03:33:34.018Z,5.60
2023-05-08T03:34:35.983Z,4.90
2023-05-08T03:35:37.984Z,4.65
2023-05-08T03:36:39.806Z,5.35
2023-05-08T03:37:41.726Z,5.10
2023-05-08T03:38:43.460Z,5.43
2023-05-08T03:39:45.088Z,5.10
2023-05-08T03:40:46.643Z,5.10
2023-05-08T03:41:48.240Z,4.60
2023-05-08T03:42:50.172Z,4.88
2023-05-08T03:43:51.824Z,5.53
2023-05-08T03:44:53.865Z,4.47
2023-05-08T03:45:56.738Z,4.90
2023-05-08T03:46:58.391Z,4.80
2023-05-08T03:48:00.243Z,4.80
2023-05-08T03:49:04.122Z,4.97
2023-05-08T03:50:06.189Z,5.55
2023-05-08T03:51:07.740Z,4.93
2023-05-08T03:52:09.335Z,4.72
2023-05-08T03:53:10.869Z,5.50
2023-05-08T03:54:12.370Z,5.30
2023-05-08T03:55:13.898Z,5.07
2023-05-08T03:56:15.447Z,5.25
2023-05-08T03:57:17.005Z,4.72
2023-05-08T03:58:18.848Z,5.00
2023-05-08T03:59:28.137Z,5.13
2023-05-08T04:00:46.495Z,5.10
2023-05-08T04:02:14.386Z,5.50
2023-05-08T04:03:16.105Z,5.07
2023-05-08T04:04:19.322Z,5.13
2023-05-08T04:05:47.343Z,4.97
2023-05-08T04:07:01.265Z,5.03
2023-05-08T04:08:15.831Z,4.65
2023-05-08T04:09:17.356Z,4.85
2023-05-08T04:10:30.492Z,5.13
2023-05-08T04:11:35.845Z,4.50
2023-05-08T04:13:12.756Z,4.88
2023-05-08T04:14:16.756Z,4.55
2023-05-08T04:15:20.523Z,5.30
2023-05-08T04:16:24.029Z,5.38
2023-05-08T04:17:43.089Z,5.10
2023-05-08T04:18:46.098Z,5.15
2023-05-08T04:19:52.020Z,4.90
2023-05-08T04:20:54.854Z,4.90
2023-05-08T04:21:59.197Z,5.30
2023-05-08T04:23:00.962Z,5.43
2023-05-08T04:24:03.326Z,4.88
2023-05-08T04:25:06.400Z,4.70
2023-05-08T04:26:08.863Z,4.97
2023-05-08T04:27:10.775Z,4.90
2023-05-08T04:28:12.461Z,5.18
2023-05-08T04:29:14.089Z,4.97
2023-05-08T04:30:15.776Z,4.82
2023-05-08T04:31:17.390Z,5.32
2023-05-08T04:32:19.216Z,5.20
2023-05-08T04:33:20.881Z,4.63
2023-05-08T04:34:23.028Z,5.43
2023-05-08T04:35:24.680Z,5.05
2023-05-08T04:36:26.328Z,4.68
2023-05-08T04:37:29.493Z,4.15
2023-05-08T04:38:31.029Z,5.00
2023-05-08T04:39:32.568Z,4.72
2023-05-08T04:40:34.106Z,4.88
2023-05-08T04:41:35.695Z,4.75
2023-05-08T04:42:37.410Z,5.03
2023-05-08T04:43:39.015Z,4.53
2023-05-08T04:44:40.618Z,4.97
2023-05-08T04:45:42.213Z,4.93
2023-05-08T04:46:43.783Z,4.90
2023-05-08T04:47:45.400Z,4.53
2023-05-08T04:48:46.958Z,4.30
2023-05-08T04:49:48.521Z,4.60
2023-05-08T04:50:50.057Z,5.43
2023-05-08T04:51:51.597Z,4.85
2023-05-08T04:52:53.226Z,5.30
2023-05-08T04:53:55.013Z,4.97
2023-05-08T04:54:56.597Z,4.95
2023-05-08T04:55:58.192Z,5.20
2023-05-08T04:56:59.835Z,5.40
2023-05-08T04:58:01.374Z,4.82
2023-05-08T04:59:02.920Z,5.13
2023-05-08T05:00:04.662Z,5.63
2023-05-08T05:01:06.341Z,5.05
2023-05-08T05:02:08.224Z,5.40
2023-05-08T05:03:10.220Z,5.00
2023-05-08T05:04:11.846Z,5.07
2023-05-08T05:05:13.729Z,4.93
2023-05-08T05:06:15.534Z,5.22
2023-05-08T05:07:17.050Z,4.85
2023-05-08T05:08:18.626Z,5.60
2023-05-08T05:09:20.201Z,5.15
2023-05-08T05:10:21.717Z,4.90
2023-05-08T05:11:23.241Z,4.72
2023-05-08T05:12:24.794Z,4.53
2023-05-08T05:13:26.577Z,4.83
2023-05-08T05:14:28.249Z,5.43
2023-05-08T05:15:29.751Z,5.22
2023-05-08T05:16:31.337Z,4.65
2023-05-08T05:17:32.967Z,4.68
2023-05-08T05:18:34.544Z,4.88
2023-05-08T05:19:36.097Z,5.22
2023-05-08T05:20:37.633Z,4.63
2023-05-08T05:21:39.626Z,4.57
2023-05-08T05:22:41.231Z,4.45
2023-05-08T05:23:42.870Z,4.33
2023-05-08T05:24:44.684Z,4.30
2023-05-08T05:25:46.280Z,4.50
2023-05-08T05:26:47.810Z,4.70
2023-05-08T05:27:49.390Z,4.88
2023-05-08T05:28:50.990Z,4.72
2023-05-08T05:29:52.591Z,4.82
2023-05-08T05:31:56.456Z,4.22
2023-05-08T05:35:01.784Z,4.30
2023-05-08T05:41:12.815Z,3.97
2023-05-08T05:43:16.702Z,4.28
2023-05-08T05:44:18.358Z,4.03
2023-05-08T05:45:19.932Z,4.10
2023-05-08T05:46:21.510Z,4.25
2023-05-08T05:48:24.869Z,3.50
2023-05-08T11:14:38.038Z,3.50
2023-05-08T11:15:40.619Z,3.28
2023-05-08T11:16:54.426Z,3.35
2023-05-08T11:17:56.192Z,3.60
2023-05-08T11:19:16.729Z,5.18
2023-05-08T11:20:22.946Z,3.60
2023-05-08T11:21:24.458Z,5.25
2023-05-08T11:22:27.231Z,3.75
2023-05-08T11:23:29.541Z,4.45
2023-05-08T11:24:35.111Z,5.40
2023-05-08T11:25:43.282Z,3.87
2023-05-08T11:26:48.914Z,4.82
2023-05-08T11:27:50.574Z,5.13
2023-05-08T11:28:56.514Z,3.47
2023-05-08T11:31:19.646Z,2.80
2023-05-08T11:32:21.590Z,3.08
2023-05-08T11:33:24.011Z,3.30
2023-05-08T11:34:43.975Z,3.22
2023-05-08T11:35:48.593Z,3.40
2023-05-08T11:37:02.538Z,4.27
2023-05-08T11:38:24.023Z,3.20
2023-05-08T11:39:25.700Z,3.00
2023-05-08T11:40:45.569Z,3.60
2023-05-08T11:41:47.288Z,3.35
2023-05-08T11:42:48.990Z,2.80
2023-05-08T11:43:50.577Z,3.70
2023-05-08T11:45:01.244Z,3.35
2023-05-08T11:46:07.169Z,3.58
2023-05-08T11:47:10.081Z,6.55
2023-05-08T11:48:14.742Z,3.90
2023-05-08T11:49:18.909Z,4.03
2023-05-08T11:50:22.156Z,4.10
2023-05-08T11:51:24.086Z,3.70
2023-05-08T11:52:25.865Z,3.40
2023-05-08T11:53:27.936Z,4.03
2023-05-08T11:54:30.531Z,3.67
2023-05-08T11:55:32.274Z,3.45
2023-05-08T11:56:34.169Z,4.03
2023-05-08T11:57:36.572Z,3.45
2023-05-08T11:58:38.230Z,3.67
2023-05-08T11:59:41.645Z,3.60
2023-05-08T12:00:44.201Z,3.20
2023-05-08T12:01:59.969Z,3.17
2023-05-08T12:03:11.961Z,3.60
2023-05-08T12:04:14.063Z,2.63
2023-05-08T12:05:26.581Z,2.92
2023-05-08T12:06:28.992Z,2.90
2023-05-08T12:07:30.730Z,3.13
2023-05-08T12:08:32.611Z,2.75
2023-05-08T12:09:34.302Z,2.57
2023-05-08T12:10:41.767Z,2.42
2023-05-08T12:11:44.766Z,2.67
2023-05-08T12:12:46.738Z,2.47
2023-05-08T12:13:50.660Z,3.15
2023-05-08T12:14:52.333Z,2.60
2023-05-08T12:15:55.542Z,2.88
2023-05-08T12:16:57.162Z,2.42
2023-05-08T12:18:02.039Z,2.60
2023-05-08T12:19:04.081Z,2.30
2023-05-08T12:20:15.878Z,2.90
2023-05-08T12:21:18.137Z,2.65
2023-05-08T12:22:19.832Z,2.53
2023-05-08T12:23:21.718Z,2.78
2023-05-08T12:24:23.762Z,2.55
2023-05-08T12:25:25.934Z,2.63
2023-05-08T12:26:27.709Z,2.85
2023-05-08T12:27:29.918Z,2.88
2023-05-08T12:28:31.645Z,2.70
2023-05-08T12:29:35.749Z,2.70
2023-05-08T12:30:37.654Z,2.63
2023-05-08T12:31:39.781Z,2.65
2023-05-08T12:32:42.312Z,3.00
2023-05-08T12:33:44.084Z,2.90
2023-05-08T12:34:45.778Z,2.70
2023-05-08T12:35:47.683Z,2.60
2023-05-08T12:36:49.523Z,3.10
2023-05-08T12:37:51.453Z,3.30
2023-05-08T12:38:53.408Z,2.80
2023-05-08T12:39:55.301Z,2.83
2023-05-08T12:40:56.996Z,2.60
2023-05-08T12:42:00.117Z,2.92
2023-05-08T12:43:03.044Z,2.67
2023-05-08T12:44:04.903Z,2.63
2023-05-08T12:45:06.912Z,2.80
2023-05-08T12:46:11.434Z,2.80
2023-05-08T12:47:13.326Z,2.60
2023-05-08T12:48:15.492Z,2.83
2023-05-08T12:49:27.209Z,2.97
2023-05-08T12:50:29.212Z,3.10
2023-05-08T12:51:30.805Z,3.70
2023-05-08T12:52:32.333Z,4.15
2023-05-08T12:53:33.949Z,4.22
2023-05-08T12:54:36.395Z,7.38
2023-05-08T12:55:39.210Z,4.20
2023-05-08T12:56:43.849Z,4.90
2023-05-08T12:57:45.529Z,4.70
2023-05-08T12:58:47.214Z,3.88
2023-05-08T12:59:49.107Z,4.03
2023-05-08T13:00:51.452Z,3.53
2023-05-08T13:01:53.283Z,3.60
2023-05-08T13:02:55.378Z,3.53
2023-05-08T13:04:02.193Z,4.55
2023-05-08T13:05:04.852Z,3.78
2023-05-08T13:06:06.670Z,3.58
2023-05-08T13:07:08.291Z,3.65
2023-05-08T13:08:10.518Z,3.95
2023-05-08T13:09:18.069Z,4.20
2023-05-08T13:10:21.617Z,4.15
2023-05-08T13:11:31.836Z,3.55
2023-05-08T13:12:34.234Z,4.17
2023-05-08T13:13:36.487Z,4.00
2023-05-08T13:14:38.212Z,4.35
2023-05-08T13:15:39.773Z,4.80
2023-05-08T13:16:45.063Z,5.05
2023-05-08T13:17:46.753Z,4.85
2023-05-08T13:18:48.385Z,4.53
2023-05-08T13:19:49.948Z,4.30
2023-05-08T13:20:51.558Z,3.75
2023-05-08T13:21:53.097Z,4.05
2023-05-08T13:22:54.659Z,3.90
2023-05-08T13:23:56.202Z,3.88
2023-05-08T13:24:57.897Z,4.38
2023-05-08T13:25:59.455Z,3.75
2023-05-08T13:27:00.957Z,3.47
2023-05-08T13:28:02.535Z,4.30
2023-05-08T13:29:04.096Z,3.65
2023-05-08T13:30:06.208Z,4.00
2023-05-08T13:31:07.833Z,4.30
2023-05-08T13:32:09.488Z,3.72
2023-05-08T13:33:11.463Z,3.97
2023-05-08T13:34:13.108Z,4.03
2023-05-08T13:35:15.018Z,4.20
2023-05-08T13:36:16.674Z,4.20
2023-05-08T13:37:18.388Z,4.57
2023-05-08T13:38:19.856Z,4.32
2023-05-08T13:39:21.391Z,3.72
2023-05-08T13:40:23.647Z,6.78
2023-05-08T13:41:25.552Z,4.00
2023-05-08T13:42:27.168Z,3.72
2023-05-08T13:43:28.718Z,4.37
2023-05-08T13:44:30.351Z,4.07
2023-05-08T13:45:31.968Z,4.05
2023-05-08T13:46:33.552Z,3.80
2023-05-08T13:47:35.225Z,3.65
2023-05-08T13:48:36.838Z,3.88
2023-05-08T13:49:38.433Z,4.57
2023-05-08T13:50:40.086Z,3.88
2023-05-08T13:51:42.668Z,3.80
2023-05-08T13:52:45.471Z,3.65
2023-05-08T13:53:47.023Z,3.60
2023-05-08T13:54:48.669Z,3.85
2023-05-08T13:55:50.262Z,3.90
2023-05-08T13:56:51.940Z,3.47
2023-05-08T13:57:53.553Z,3.30
2023-05-08T13:58:55.096Z,4.00
2023-05-08T13:59:56.602Z,4.15
2023-05-08T14:00:58.599Z,3.80
2023-05-08T14:02:00.295Z,4.22
2023-05-08T14:03:02.002Z,3.95
2023-05-08T14:04:03.951Z,3.60
2023-05-08T14:05:06.087Z,3.78
2023-05-08T14:06:07.727Z,3.53
2023-05-08T14:07:09.410Z,4.25
2023-05-08T14:08:10.967Z,3.53
2023-05-08T14:09:12.519Z,3.42
2023-05-08T14:10:14.088Z,4.05
2023-05-08T14:11:15.609Z,3.45
2023-05-08T14:12:17.204Z,3.83
2023-05-08T14:13:18.774Z,3.88
2023-05-08T14:14:20.409Z,4.10
2023-05-08T14:15:24.981Z,5.18
2023-05-08T14:16:28.702Z,4.88
2023-05-08T14:17:30.385Z,4.93
2023-05-08T14:18:31.985Z,3.63
2023-05-08T14:19:33.723Z,3.85
2023-05-08T14:20:35.345Z,3.97
2023-05-08T14:21:36.915Z,4.00
2023-05-08T14:22:38.632Z,3.70
2023-05-08T14:23:40.196Z,4.05
2023-05-08T14:24:41.734Z,4.00
2023-05-08T14:25:43.321Z,3.67
2023-05-08T14:26:45.082Z,4.03
2023-05-08T14:27:46.753Z,3.50
2023-05-08T14:28:48.230Z,3.50
2023-05-08T14:29:49.794Z,4.60
2023-05-08T14:30:51.416Z,3.90
2023-05-08T14:31:53.156Z,4.55
2023-05-08T14:32:55.000Z,4.30
2023-05-08T14:33:56.791Z,3.90
2023-05-08T14:34:58.301Z,4.00
2023-05-08T14:35:59.840Z,3.90
2023-05-08T14:37:01.473Z,3.53
2023-05-08T14:38:03.204Z,4.10
2023-05-08T14:39:04.801Z,4.30
2023-05-08T14:40:06.945Z,4.13
2023-05-08T14:41:08.507Z,3.42
2023-05-08T14:43:14.649Z,2.40
2023-05-08T14:44:16.251Z,2.10
2023-05-08T14:45:18.111Z,2.13
2023-05-08T14:46:19.957Z,2.00
2023-05-08T14:47:21.549Z,2.20
2023-05-08T14:48:23.189Z,2.40
2023-05-08T14:49:36.646Z,2.00
2023-05-08T14:50:39.995Z,2.15
2023-05-08T14:51:41.534Z,2.20
2023-05-08T14:52:43.028Z,2.08
2023-05-08T14:53:44.793Z,2.47
2023-05-08T14:54:46.633Z,2.08
2023-05-08T14:55:48.306Z,2.70
2023-05-08T14:56:50.092Z,2.30
2023-05-08T14:57:51.760Z,2.88
2023-05-08T14:58:53.423Z,2.55
2023-05-08T14:59:55.536Z,2.78
2023-05-08T15:00:57.202Z,2.50
2023-05-08T15:01:59.088Z,2.65
2023-05-08T15:03:01.110Z,2.70
2023-05-08T15:04:02.937Z,2.83
2023-05-08T15:05:08.348Z,2.45
2023-05-08T15:06:12.518Z,2.60
2023-05-08T15:07:14.049Z,2.08
2023-05-08T15:08:15.619Z,2.42
2023-05-08T15:09:17.253Z,2.17
2023-05-08T15:10:18.901Z,2.30
2023-05-08T15:11:20.757Z,2.05
2023-05-08T15:12:22.668Z,2.28
2023-05-08T15:13:24.238Z,2.30
2023-05-08T15:14:25.793Z,2.05
2023-05-08T15:15:27.523Z,1.67
2023-05-08T15:16:29.326Z,1.83
2023-05-08T15:17:31.026Z,1.60
2023-05-08T15:18:32.607Z,2.05
2023-05-08T15:19:34.221Z,1.85
2023-05-08T15:20:35.817Z,2.15
2023-05-08T15:21:37.324Z,1.63
2023-05-08T15:22:38.928Z,1.65
2023-05-08T15:23:40.479Z,1.58
2023-05-08T15:24:42.170Z,1.70
2023-05-08T15:25:43.708Z,1.73
2023-05-08T15:26:45.297Z,2.07
2023-05-08T15:27:46.852Z,1.58
2023-05-08T15:28:48.712Z,1.60
2023-05-08T15:29:50.313Z,1.90
2023-05-08T15:30:51.862Z,1.63
2023-05-08T15:31:53.403Z,1.67
2023-05-08T15:32:54.986Z,1.60
2023-05-08T15:33:56.883Z,1.70
2023-05-08T15:34:58.479Z,1.90
2023-05-08T15:36:00.105Z,1.70
2023-05-08T15:37:01.689Z,1.70
2023-05-08T15:38:03.273Z,1.70
2023-05-08T15:39:04.817Z,2.00
2023-05-08T15:40:07.048Z,1.92
2023-05-08T15:41:08.628Z,1.92
2023-05-08T15:42:10.162Z,1.88
2023-05-08T15:43:11.708Z,1.95
2023-05-08T15:44:14.740Z,1.60
2023-05-08T15:45:16.599Z,1.83
2023-05-08T15:46:18.340Z,1.73
2023-05-08T15:47:19.872Z,2.03
2023-05-08T15:48:21.510Z,1.85
2023-05-08T15:49:23.033Z,1.63
2023-05-08T15:50:24.748Z,1.63
2023-05-08T15:51:26.276Z,2.10
2023-05-08T15:52:27.877Z,1.98
2023-05-08T15:53:29.467Z,1.85
2023-05-08T15:54:31.094Z,1.92
2023-05-08T15:55:32.703Z,2.05
2023-05-08T15:56:34.705Z,1.85
2023-05-08T15:57:36.232Z,2.00
2023-05-08T15:58:37.821Z,1.95
2023-05-08T15:59:39.578Z,2.03
2023-05-08T16:00:45.263Z,2.15
2023-05-08T16:01:47.338Z,2.20
2023-05-08T16:02:49.148Z,1.70
2023-05-08T16:03:50.943Z,2.03
2023-05-08T16:04:52.535Z,2.17
2023-05-08T16:05:54.087Z,2.25
2023-05-08T16:06:55.645Z,2.20
2023-05-08T16:07:57.178Z,2.20
2023-05-08T16:08:58.710Z,2.20
2023-05-08T16:10:00.322Z,2.00
2023-05-08T16:11:01.894Z,2.40
2023-05-08T16:12:03.456Z,2.38
2023-05-08T16:13:05.224Z,2.10
2023-05-08T16:14:06.845Z,2.67
2023-05-08T16:15:08.607Z,2.72
2023-05-08T16:16:10.327Z,2.70
2023-05-08T16:17:12.024Z,2.47
2023-05-08T16:18:13.583Z,2.80
2023-05-08T16:19:15.412Z,2.88
2023-05-08T16:20:17.181Z,3.00
2023-05-08T16:21:18.836Z,2.65
2023-05-08T16:22:20.742Z,2.40
2023-05-08T16:23:22.394Z,2.35
2023-05-08T16:24:23.962Z,3.20
2023-05-08T16:25:25.840Z,2.30
2023-05-08T16:26:27.384Z,2.65
2023-05-08T16:27:29.147Z,2.70
2023-05-08T16:28:30.852Z,2.90
2023-05-08T16:29:32.550Z,2.38
2023-05-08T16:30:34.258Z,2.97
2023-05-08T16:31:36.056Z,3.10
2023-05-08T16:32:37.988Z,2.60
2023-05-08T16:33:39.719Z,2.97
2023-05-08T16:34:41.336Z,2.70
2023-05-08T16:35:43.096Z,2.75
2023-05-08T16:36:44.784Z,2.85
2023-05-08T16:37:46.444Z,2.67
2023-05-08T16:38:48.272Z,2.63
2023-05-08T16:39:49.958Z,2.90
2023-05-08T16:40:54.651Z,2.97
2023-05-08T16:41:56.369Z,2.38
2023-05-08T16:42:58.040Z,2.53
2023-05-08T16:43:59.947Z,2.60
2023-05-08T16:45:01.744Z,3.15
2023-05-08T16:46:05.703Z,2.58
2023-05-08T16:47:07.478Z,2.88
2023-05-08T16:48:09.411Z,3.00
2023-05-08T16:49:11.252Z,3.13
2023-05-08T16:50:12.912Z,2.85
2023-05-08T16:51:14.738Z,3.00
2023-05-08T16:52:16.519Z,2.80
2023-05-08T16:53:18.131Z,2.92
2023-05-08T16:54:19.829Z,2.78
2023-05-08T16:55:21.435Z,3.05
2023-05-08T16:56:23.055Z,3.28
2023-05-08T16:57:24.740Z,3.33
2023-05-08T16:58:26.568Z,3.40
2023-05-08T16:59:28.246Z,3.67
2023-05-08T17:00:29.953Z,3.22
2023-05-08T17:01:31.740Z,3.92
2023-05-08T17:02:33.550Z,3.75
2023-05-08T17:03:35.300Z,3.80
2023-05-08T17:04:37.018Z,4.07
2023-05-08T17:05:38.693Z,6.65
2023-05-08T17:06:40.261Z,6.25
2023-05-08T17:07:41.785Z,5.88
2023-05-08T17:08:43.392Z,3.75
2023-05-08T17:09:45.330Z,3.97
2023-05-08T17:10:47.091Z,4.43
2023-05-08T17:11:48.732Z,4.68
2023-05-08T17:12:51.730Z,4.15
2023-05-08T17:13:54.419Z,4.05
2023-05-08T17:14:56.010Z,4.20
2023-05-08T17:16:00.869Z,4.82
2023-05-08T17:17:02.486Z,7.10
2023-05-08T17:18:04.056Z,7.18
2023-05-08T17:19:05.589Z,13.38
2023-05-08T17:20:07.502Z,14.93
2023-05-08T17:21:09.212Z,7.50
2023-05-08T17:22:10.921Z,10.32
2023-05-08T17:23:12.896Z,8.35
2023-05-08T17:24:14.654Z,5.45
2023-05-08T17:25:16.438Z,5.63
2023-05-08T17:26:18.349Z,6.22
2023-05-08T17:27:19.936Z,6.50
2023-05-08T17:28:21.449Z,6.45
2023-05-08T17:29:22.959Z,6.80
2023-05-08T17:30:24.631Z,7.67
2023-05-08T17:31:26.238Z,7.20
2023-05-08T17:32:28.026Z,8.80
2023-05-08T17:33:29.849Z,8.60
2023-05-08T17:34:31.423Z,7.90
2023-05-08T17:35:33.775Z,8.50
2023-05-08T17:36:35.323Z,7.93
2023-05-08T17:37:37.117Z,7.10
2023-05-08T17:38:38.691Z,6.65
2023-05-08T17:39:40.208Z,7.18
2023-05-08T17:40:42.294Z,5.90
2023-05-08T17:41:43.973Z,5.50
2023-05-08T17:42:45.518Z,7.28
2023-05-08T17:43:47.603Z,10.27
2023-05-08T17:44:49.514Z,12.20
2023-05-08T17:45:51.225Z,7.00
2023-05-08T17:46:52.915Z,7.05
2023-05-08T17:47:54.596Z,7.80
2023-05-08T17:48:56.215Z,7.55
2023-05-08T17:49:57.860Z,6.05
2023-05-08T17:50:59.629Z,5.63
2023-05-08T17:52:01.225Z,5.30
2023-05-08T17:53:02.779Z,6.50
2023-05-08T17:54:04.576Z,6.22
2023-05-08T17:55:06.717Z,6.18
2023-05-08T17:56:08.803Z,9.13
2023-05-08T17:57:10.366Z,9.07
2023-05-08T17:58:12.600Z,6.95
2023-05-08T17:59:15.044Z,6.53
2023-05-08T18:00:17.657Z,5.75
2023-05-08T18:01:20.096Z,5.57
2023-05-08T18:02:22.027Z,5.75
2023-05-08T18:03:23.748Z,7.78
2023-05-08T18:04:26.042Z,6.97
2023-05-08T18:05:27.620Z,7.13
2023-05-08T18:06:29.285Z,7.57
2023-05-08T18:07:30.902Z,6.82
2023-05-08T18:08:33.651Z,5.93
2023-05-08T18:09:35.164Z,5.90
2023-05-08T18:10:36.833Z,6.13
2023-05-08T18:11:38.485Z,8.50
2023-05-08T18:12:40.087Z,5.22
2023-05-08T18:13:41.672Z,6.20
2023-05-08T18:14:43.194Z,6.60
2023-05-08T18:15:44.812Z,6.13
2023-05-08T18:16:46.520Z,5.57
2023-05-08T18:17:48.274Z,5.55
2023-05-08T18:18:49.965Z,5.97
2023-05-08T18:19:51.830Z,5.50
2023-05-08T18:20:53.386Z,5.82
2023-05-08T18:21:55.007Z,6.83
2023-05-08T18:22:56.551Z,5.50
2023-05-08T18:23:58.159Z,6.05
2023-05-08T18:24:59.835Z,6.20
2023-05-08T18:26:01.434Z,6.50
2023-05-08T18:27:03.227Z,6.93
2023-05-08T18:28:04.893Z,8.10
2023-05-08T18:29:07.103Z,7.90
2023-05-08T18:30:09.304Z,7.75
2023-05-08T18:31:11.567Z,7.75
2023-05-08T18:32:13.668Z,7.70
2023-05-08T18:33:15.315Z,9.10
2023-05-08T18:34:16.935Z,9.45
2023-05-08T18:35:18.570Z,10.13
2023-05-08T18:36:20.070Z,9.73
2023-05-08T18:37:21.584Z,8.88
2023-05-08T18:38:23.236Z,8.82
2023-05-08T18:39:24.815Z,9.52
2023-05-08T18:40:26.480Z,8.55
2023-05-08T18:41:28.081Z,8.82
2023-05-08T18:42:29.767Z,8.83
2023-05-08T18:43:31.469Z,9.07
2023-05-08T18:44:33.030Z,9.18
2023-05-08T18:45:37.641Z,8.80
2023-05-08T18:46:39.241Z,8.43
2023-05-08T18:47:40.855Z,8.40
2023-05-08T18:48:42.802Z,8.90
2023-05-08T18:49:44.853Z,9.20
2023-05-08T18:50:46.381Z,11.75
2023-05-08T18:51:47.931Z,10.95
2023-05-08T18:52:49.929Z,11.37
2023-05-08T18:53:51.441Z,11.52
2023-05-08T18:54:53.163Z,10.88
2023-05-08T18:55:54.975Z,10.98
2023-05-08T18:56:56.578Z,10.18
2023-05-08T18:57:58.144Z,10.40
2023-05-08T18:59:00.271Z,9.95
2023-05-08T19:00:02.098Z,9.93
2023-05-08T19:01:03.814Z,10.07
2023-05-08T19:02:05.427Z,11.02
2023-05-08T19:03:07.114Z,9.77
2023-05-08T19:04:08.905Z,8.50
2023-05-08T19:05:10.710Z,8.63
2023-05-08T19:06:12.502Z,9.30
2023-05-08T19:07:14.051Z,8.40
2023-05-08T19:08:15.668Z,9.05
2023-05-08T19:09:17.263Z,8.20
2023-05-08T19:10:18.854Z,8.07
2023-05-08T19:11:20.429Z,8.18
2023-05-08T19:12:22.015Z,7.57
2023-05-08T19:13:23.752Z,6.73
2023-05-08T19:14:25.571Z,6.18
2023-05-08T19:15:27.250Z,6.53
2023-05-08T19:16:29.058Z,6.30
2023-05-08T19:17:30.808Z,5.35
2023-05-08T19:18:32.495Z,4.50
2023-05-08T19:19:34.083Z,4.15
2023-05-08T19:20:35.693Z,3.83
2023-05-08T19:21:37.349Z,4.50
2023-05-08T19:22:38.956Z,4.25
2023-05-08T19:23:40.549Z,5.10
2023-05-08T19:24:42.120Z,5.20
2023-05-08T19:25:43.831Z,5.75
2023-05-08T19:26:45.557Z,4.28
2023-05-08T19:27:47.150Z,4.65
2023-05-08T19:28:48.799Z,4.43
2023-05-08T19:29:50.488Z,5.43
2023-05-08T19:30:52.080Z,4.72
2023-05-08T19:31:53.714Z,4.57
2023-05-08T19:32:55.276Z,4.75
2023-05-08T19:33:56.924Z,5.37
2023-05-08T19:34:58.502Z,5.20
2023-05-08T19:36:00.054Z,5.18
2023-05-08T19:37:02.187Z,5.80
2023-05-08T19:38:04.062Z,4.97
2023-05-08T19:39:05.620Z,4.30
2023-05-08T19:40:07.480Z,5.53
2023-05-08T19:41:10.908Z,4.78
2023-05-08T19:42:12.502Z,5.25
2023-05-08T19:43:15.277Z,4.82
2023-05-08T19:44:16.948Z,4.40
2023-05-08T19:45:18.582Z,4.60
2023-05-08T19:46:20.307Z,4.50
2023-05-08T19:47:22.259Z,4.10
2023-05-08T19:48:24.049Z,7.30
2023-05-08T19:49:25.650Z,5.40
2023-05-08T19:50:27.560Z,4.35
2023-05-08T19:51:29.291Z,5.60
2023-05-08T19:52:30.912Z,4.90
2023-05-08T19:53:32.681Z,3.80
2023-05-08T19:54:34.228Z,4.40
2023-05-08T19:55:35.811Z,3.92
2023-05-08T19:56:37.341Z,3.90
2023-05-08T19:57:38.864Z,4.22
2023-05-08T19:58:40.488Z,3.67
2023-05-08T19:59:42.108Z,4.10
2023-05-08T20:00:50.738Z,4.97
2023-05-08T20:01:52.768Z,3.45
2023-05-08T20:02:54.839Z,4.30
2023-05-08T20:03:58.982Z,6.28
2023-05-08T20:06:06.446Z,3.63
2023-05-08T20:07:08.016Z,4.30
2023-05-08T20:08:09.605Z,3.38
2023-05-08T20:09:11.282Z,3.85
2023-05-08T20:10:13.177Z,3.60
2023-05-08T20:11:15.258Z,3.90
2023-05-08T20:12:16.866Z,3.55
2023-05-08T20:13:18.617Z,3.70
2023-05-08T20:14:20.278Z,4.13
2023-05-08T20:15:21.949Z,3.97
2023-05-08T20:16:23.509Z,3.75
2023-05-08T20:17:25.096Z,3.70
2023-05-08T20:18:26.853Z,3.63
2023-05-08T20:19:28.501Z,4.00
2023-05-08T20:20:30.167Z,3.97